createdAt,value
2023-02-28T00:00:49.886Z,10.85
2023-02-28T00:03:16.666Z,13.10
2023-02-28T00:05:43.159Z,11.25
2023-02-28T00:08:10.125Z,13.80
2023-02-28T00:10:36.952Z,12.38
2023-02-28T00:13:05.966Z,14.27
2023-02-28T00:15:32.880Z,14.30
2023-02-28T00:17:59.258Z,14.90
2023-02-28T00:20:25.866Z,15.07
2023-02-28T00:22:53.724Z,15.15
2023-02-28T00:25:23.144Z,12.30
2023-02-28T00:27:50.007Z,15.10
2023-02-28T00:30:19.296Z,14.43
2023-02-28T00:32:45.691Z,12.20
2023-02-28T00:35:12.237Z,15.82
2023-02-28T00:37:38.972Z,13.57
2023-02-28T00:40:07.222Z,11.05
2023-02-28T00:42:36.758Z,13.70
2023-02-28T00:45:05.534Z,14.13
2023-02-28T00:47:32.443Z,13.02
2023-02-28T00:49:59.106Z,12.18
2023-02-28T00:52:25.611Z,12.13
2023-02-28T00:54:52.033Z,9.50
2023-02-28T00:57:18.471Z,9.45
2023-02-28T00:59:44.875Z,10.95
2023-02-28T01:02:11.316Z,9.35
2023-02-28T01:04:37.731Z,9.02
2023-02-28T01:07:04.129Z,9.57
2023-02-28T01:09:30.616Z,12.77
2023-02-28T01:11:57.053Z,9.57
2023-02-28T01:14:23.475Z,7.18
2023-02-28T01:16:49.871Z,8.25
2023-02-28T01:19:16.705Z,9.38
2023-02-28T01:21:43.079Z,8.98
2023-02-28T01:24:09.781Z,7.35
2023-02-28T01:26:36.465Z,6.47
2023-02-28T01:29:02.949Z,7.18
2023-02-28T01:31:29.710Z,6.40
2023-02-28T01:33:56.448Z,5.70
2023-02-28T01:36:24.454Z,6.68
2023-02-28T01:38:51.213Z,6.82
2023-02-28T01:41:23.375Z,6.75
2023-02-28T01:43:49.650Z,5.70
2023-02-28T01:46:16.569Z,7.35
2023-02-28T01:48:49.563Z,7.13
2023-02-28T01:51:21.483Z,5.45
2023-02-28T01:54:03.800Z,6.43
2023-02-28T01:56:34.787Z,7.20
2023-02-28T01:59:01.230Z,6.43
2023-02-28T02:01:28.728Z,6.25
2023-02-28T02:04:00.515Z,7.38
2023-02-28T02:06:33.516Z,9.30
2023-02-28T02:08:59.992Z,7.65
2023-02-28T02:11:26.939Z,7.22
2023-02-28T02:14:01.534Z,10.15
2023-02-28T02:16:40.090Z,8.43
2023-02-28T02:19:54.094Z,8.20
2023-02-28T02:23:11.390Z,7.50
2023-02-28T02:25:47.042Z,5.65
2023-02-28T02:28:26.369Z,6.30
2023-02-28T02:31:17.702Z,6.35
2023-02-28T02:34:00.592Z,5.45
2023-02-28T02:36:43.785Z,7.85
2023-02-28T02:39:13.321Z,8.07
2023-02-28T02:41:47.364Z,7.75
2023-02-28T02:44:49.319Z,9.75
2023-02-28T02:47:19.080Z,6.00
2023-02-28T02:49:52.577Z,7.13
2023-02-28T02:52:23.234Z,5.97
2023-02-28T02:54:56.353Z,6.70
2023-02-28T02:57:30.670Z,7.70
2023-02-28T02:59:57.465Z,7.05
2023-02-28T03:02:24.628Z,5.40
2023-02-28T03:04:56.660Z,7.28
2023-02-28T03:07:23.068Z,6.30
2023-02-28T03:09:53.748Z,5.45
2023-02-28T03:12:21.127Z,5.43
2023-02-28T03:15:04.346Z,5.32
2023-02-28T03:17:49.082Z,7.05
2023-02-28T03:20:37.152Z,8.25
2023-02-28T03:23:24.897Z,6.63
2023-02-28T03:26:02.079Z,8.85
2023-02-28T03:28:34.494Z,6.72
2023-02-28T03:34:49.876Z,5.68
2023-02-28T03:37:20.824Z,5.85
2023-02-28T03:39:56.712Z,5.00
2023-02-28T03:42:26.990Z,5.50
2023-02-28T03:44:57.141Z,6.57
2023-02-28T03:47:33.660Z,6.93
2023-02-28T03:50:23.149Z,6.13
2023-02-28T03:53:02.294Z,5.28
2023-02-28T03:55:33.318Z,6.18
2023-02-28T03:58:04.812Z,6.72
2023-02-28T04:00:35.633Z,6.23
2023-02-28T04:03:02.209Z,8.75
2023-02-28T04:05:28.824Z,7.30
2023-02-28T04:07:55.209Z,5.05
2023-02-28T04:10:21.900Z,6.28
2023-02-28T04:12:48.274Z,5.72
2023-02-28T04:15:14.778Z,5.40
2023-02-28T04:17:41.190Z,4.72
2023-02-28T04:20:10.575Z,5.57
2023-02-28T04:22:38.224Z,5.57
2023-02-28T04:25:06.588Z,4.25
2023-02-28T04:27:33.060Z,8.38
2023-02-28T04:29:59.537Z,5.70
2023-02-28T04:32:26.053Z,5.78
2023-02-28T04:34:52.557Z,6.88
2023-02-28T04:37:18.968Z,5.43
2023-02-28T04:39:45.364Z,7.55
2023-02-28T04:42:12.744Z,9.40
2023-02-28T04:44:39.157Z,8.77
2023-02-28T04:47:06.110Z,12.50
2023-02-28T04:49:32.924Z,8.18
2023-02-28T04:51:59.340Z,8.20
2023-02-28T04:54:25.752Z,7.32
2023-02-28T04:56:52.355Z,7.35
2023-02-28T04:59:18.730Z,8.73
2023-02-28T05:01:49.069Z,13.15
2023-02-28T05:04:15.665Z,10.18
2023-02-28T05:06:42.069Z,7.80
2023-02-28T05:09:08.485Z,10.88
2023-02-28T05:11:36.202Z,14.95
2023-02-28T05:14:04.828Z,16.88
2023-02-28T05:16:32.100Z,15.80
2023-02-28T05:18:58.746Z,15.15
2023-02-28T05:21:31.451Z,14.45
2023-02-28T05:24:16.289Z,12.55
2023-02-28T05:26:43.944Z,11.38
2023-02-28T05:29:10.951Z,7.90
2023-02-28T05:31:37.520Z,8.57
2023-02-28T05:34:05.154Z,8.85
2023-02-28T05:36:31.664Z,8.80
2023-02-28T05:38:58.131Z,9.70
2023-02-28T05:41:24.519Z,7.15
2023-02-28T05:43:50.990Z,8.32
2023-02-28T05:46:17.558Z,7.32
2023-02-28T05:48:47.719Z,7.65
2023-02-28T05:51:14.243Z,9.45
2023-02-28T05:53:40.642Z,10.55
2023-02-28T05:56:07.301Z,7.93
2023-02-28T05:58:34.446Z,8.95
2023-02-28T06:01:02.301Z,9.73
2023-02-28T06:03:28.722Z,9.07
2023-02-28T06:05:55.133Z,7.63
2023-02-28T06:08:21.756Z,10.13
2023-02-28T06:10:48.235Z,9.65
2023-02-28T06:13:15.269Z,11.43
2023-02-28T06:15:41.762Z,8.32
2023-02-28T06:18:08.336Z,10.00
2023-02-28T06:20:35.441Z,6.68
2023-02-28T06:23:01.832Z,8.32
2023-02-28T06:25:28.733Z,7.78
2023-02-28T06:27:56.225Z,8.55
2023-02-28T06:30:26.268Z,7.32
2023-02-28T06:32:53.092Z,7.63
2023-02-28T06:35:19.657Z,8.02
2023-02-28T06:37:46.148Z,9.30
2023-02-28T06:40:13.952Z,8.77
2023-02-28T06:42:40.551Z,10.27
2023-02-28T06:45:10.184Z,8.55
2023-02-28T06:47:38.234Z,9.43
2023-02-28T06:50:05.952Z,10.50
2023-02-28T06:52:32.538Z,10.73
2023-02-28T06:55:01.746Z,9.60
2023-02-28T06:57:34.750Z,12.48
2023-02-28T07:00:08.743Z,10.18
2023-02-28T07:02:38.622Z,9.38
2023-02-28T07:05:06.514Z,8.80
2023-02-28T07:07:33.364Z,8.35
2023-02-28T07:09:59.980Z,9.45
2023-02-28T07:12:26.453Z,10.50
2023-02-28T07:14:52.859Z,9.52
2023-02-28T07:17:19.241Z,9.15
2023-02-28T07:19:45.664Z,9.38
2023-02-28T07:22:13.374Z,12.35
2023-02-28T07:24:41.264Z,10.10
2023-02-28T07:27:07.642Z,8.93
2023-02-28T07:29:34.076Z,11.45
2023-02-28T07:32:00.508Z,11.32
2023-02-28T07:34:26.952Z,8.98
2023-02-28T07:36:54.777Z,8.05
2023-02-28T07:39:22.220Z,6.82
2023-02-28T07:41:48.694Z,7.85
2023-02-28T07:44:15.243Z,6.20
2023-02-28T07:46:41.757Z,7.25
2023-02-28T07:49:08.269Z,6.32
2023-02-28T07:51:34.676Z,5.55
2023-02-28T07:54:01.584Z,6.40
2023-02-28T07:56:28.470Z,6.43
2023-02-28T07:58:55.159Z,6.90
2023-02-28T08:01:21.882Z,4.35
2023-02-28T08:03:48.367Z,6.40
2023-02-28T08:06:20.667Z,6.15
2023-02-28T08:08:47.163Z,7.20
2023-02-28T08:11:13.647Z,5.07
2023-02-28T08:13:40.071Z,7.03
2023-02-28T08:16:06.712Z,9.43
2023-02-28T08:18:33.459Z,9.95
2023-02-28T08:21:00.224Z,5.70
2023-02-28T08:23:26.655Z,7.00
2023-02-28T08:25:56.828Z,12.15
2023-02-28T08:28:26.759Z,13.45
2023-02-28T08:30:53.583Z,11.38
2023-02-28T08:33:20.046Z,12.38
2023-02-28T08:35:46.542Z,10.77
2023-02-28T08:38:13.416Z,11.13
2023-02-28T08:40:39.874Z,14.13
2023-02-28T08:43:06.301Z,11.32
2023-02-28T08:45:32.922Z,10.68
2023-02-28T08:47:59.366Z,9.68
2023-02-28T08:50:25.850Z,11.68
2023-02-28T08:52:52.837Z,7.38
2023-02-28T08:55:19.555Z,8.88
2023-02-28T08:57:46.029Z,11.85
2023-02-28T09:00:14.781Z,8.73
2023-02-28T09:02:43.671Z,9.05
2023-02-28T09:05:11.134Z,6.05
2023-02-28T09:07:37.905Z,6.85
2023-02-28T09:10:04.779Z,8.90
2023-02-28T09:12:34.620Z,6.75
2023-02-28T09:15:01.086Z,8.50
2023-02-28T09:17:30.685Z,7.20
2023-02-28T09:19:58.047Z,8.30
2023-02-28T09:22:24.530Z,8.43
2023-02-28T09:24:50.956Z,8.10
2023-02-28T09:27:20.414Z,7.50
2023-02-28T09:29:47.341Z,7.38
2023-02-28T09:32:14.028Z,7.75
2023-02-28T09:34:40.602Z,7.78
2023-02-28T09:37:09.860Z,5.47
2023-02-28T09:39:39.082Z,4.95
2023-02-28T09:42:06.933Z,4.05
2023-02-28T09:44:40.222Z,5.57
2023-02-28T09:47:14.354Z,5.28
2023-02-28T09:49:43.562Z,3.95
2023-02-28T09:52:31.383Z,3.90
2023-02-28T09:55:07.175Z,4.72
2023-02-28T09:57:40.085Z,3.28
2023-02-28T10:03:01.678Z,3.65
2023-02-28T10:05:32.599Z,4.55
2023-02-28T10:08:19.198Z,4.63
2023-02-28T10:10:48.300Z,4.95
2023-02-28T10:13:23.201Z,3.88
2023-02-28T10:15:53.666Z,3.58
2023-02-28T10:18:25.576Z,5.50
2023-02-28T10:20:53.562Z,2.28
2023-02-28T10:23:38.457Z,2.78
2023-02-28T10:26:14.089Z,3.53
2023-02-28T10:28:41.151Z,3.38
2023-02-28T10:31:12.810Z,4.85
2023-02-28T10:33:39.205Z,4.82
2023-02-28T10:36:07.770Z,3.72
2023-02-28T10:38:39.274Z,4.75
2023-02-28T10:41:10.268Z,3.97
2023-02-28T10:43:38.616Z,3.03
2023-02-28T10:46:27.008Z,3.55
2023-02-28T10:49:07.727Z,2.30
2023-02-28T10:51:42.196Z,5.03
2023-02-28T10:54:30.827Z,4.35
2023-02-28T10:57:18.699Z,4.20
2023-02-28T10:59:45.619Z,2.95
2023-02-28T11:02:39.044Z,5.30
2023-02-28T11:05:24.157Z,3.47
2023-02-28T11:08:15.130Z,5.05
2023-02-28T11:10:45.847Z,3.53
2023-02-28T11:13:21.385Z,3.67
2023-02-28T11:15:59.140Z,4.18
2023-02-28T11:18:37.666Z,4.30
2023-02-28T11:21:04.236Z,3.78
2023-02-28T11:23:32.096Z,2.80
2023-02-28T11:26:01.850Z,4.68
2023-02-28T11:28:37.195Z,2.65
2023-02-28T11:31:12.548Z,3.53
2023-02-28T11:33:45.805Z,2.97
2023-02-28T11:36:21.794Z,3.13
2023-02-28T11:38:50.434Z,4.45
2023-02-28T11:41:28.391Z,3.78
2023-02-28T11:44:02.812Z,2.20
2023-02-28T11:46:57.646Z,3.55
2023-02-28T11:49:35.204Z,3.45
2023-02-28T11:52:20.949Z,2.95
2023-02-28T11:55:12.464Z,2.85
2023-02-28T11:57:59.129Z,3.17
2023-02-28T12:00:39.640Z,2.72
2023-02-28T12:03:19.052Z,1.48
2023-02-28T12:06:02.079Z,2.17
2023-02-28T12:09:24.678Z,2.72
2023-02-28T12:11:56.820Z,3.37
2023-02-28T12:14:32.157Z,2.97
2023-02-28T12:17:32.530Z,2.25
2023-02-28T12:20:05.801Z,3.65
2023-02-28T12:22:36.092Z,2.65
2023-02-28T12:25:18.605Z,3.88
2023-02-28T12:27:47.650Z,2.22
2023-02-28T12:30:26.709Z,2.10
2023-02-28T12:33:05.394Z,3.78
2023-02-28T12:35:40.110Z,2.88
2023-02-28T12:38:20.300Z,3.83
2023-02-28T12:40:59.405Z,4.15
2023-02-28T12:43:30.202Z,3.58
2023-02-28T12:46:13.851Z,2.90
2023-02-28T12:48:44.374Z,8.02
2023-02-28T12:51:12.019Z,2.20
2023-02-28T12:53:53.438Z,3.60
2023-02-28T12:56:48.810Z,3.38
2023-02-28T12:59:38.095Z,5.60
2023-02-28T13:02:12.229Z,3.20
2023-02-28T13:05:15.968Z,2.60
2023-02-28T13:08:04.274Z,2.42
2023-02-28T13:10:43.108Z,5.00
2023-02-28T13:13:16.098Z,3.60
2023-02-28T13:15:58.207Z,3.35
2023-02-28T13:18:53.649Z,3.55
2023-02-28T13:21:28.112Z,3.42
2023-02-28T13:23:57.698Z,2.97
2023-02-28T13:26:36.386Z,3.65
2023-02-28T13:29:11.825Z,4.35
2023-02-28T13:32:06.716Z,3.78
2023-02-28T13:34:34.478Z,3.92
2023-02-28T13:37:24.058Z,2.42
2023-02-28T13:39:54.492Z,3.78
2023-02-28T13:42:38.130Z,4.07
2023-02-28T13:45:04.689Z,3.25
2023-02-28T13:47:35.024Z,3.38
2023-02-28T13:50:17.862Z,3.25
2023-02-28T13:53:14.655Z,3.15
2023-02-28T13:56:04.452Z,5.78
2023-02-28T13:58:52.585Z,3.65
2023-02-28T14:01:44.271Z,4.32
2023-02-28T14:04:22.808Z,3.28
2023-02-28T14:06:51.556Z,5.72
2023-02-28T14:09:35.707Z,4.10
2023-02-28T14:12:39.748Z,3.63
2023-02-28T14:15:37.570Z,2.50
2023-02-28T14:18:12.134Z,2.65
2023-02-28T14:20:41.382Z,3.50
2023-02-28T14:23:22.015Z,3.63
2023-02-28T14:26:20.315Z,2.83
2023-02-28T14:28:46.669Z,2.53
2023-02-28T14:31:20.431Z,2.53
2023-02-28T14:33:59.832Z,2.95
2023-02-28T14:36:31.967Z,2.70
2023-02-28T14:39:01.361Z,4.18
2023-02-28T14:41:37.856Z,4.45
2023-02-28T14:44:16.754Z,2.80
2023-02-28T14:46:44.216Z,2.67
2023-02-28T14:49:21.880Z,3.40
2023-02-28T14:51:50.699Z,2.13
2023-02-28T14:54:24.831Z,4.60
2023-02-28T14:56:51.263Z,3.70
2023-02-28T14:59:35.584Z,3.13
2023-02-28T15:02:19.354Z,3.88
2023-02-28T15:04:57.619Z,3.60
2023-02-28T15:07:30.759Z,2.80
2023-02-28T15:10:11.085Z,3.85
2023-02-28T15:12:37.967Z,3.30
2023-02-28T15:15:04.878Z,4.63
2023-02-28T15:17:31.455Z,4.05
2023-02-28T15:19:58.058Z,3.13
2023-02-28T15:22:37.170Z,3.47
2023-02-28T15:25:05.282Z,6.07
2023-02-28T15:27:33.680Z,3.30
2023-02-28T15:30:01.847Z,4.82
2023-02-28T15:32:37.057Z,3.80
2023-02-28T15:35:42.421Z,4.82
2023-02-28T15:38:38.265Z,3.90
2023-02-28T15:41:08.942Z,5.35
2023-02-28T15:43:40.888Z,5.53
2023-02-28T15:46:09.068Z,3.65
2023-02-28T15:48:37.868Z,2.85
2023-02-28T15:51:07.409Z,4.07
2023-02-28T15:53:38.029Z,3.75
2023-02-28T15:56:07.647Z,7.50
2023-02-28T15:58:35.982Z,3.92
2023-02-28T16:01:08.790Z,6.00
2023-02-28T16:03:45.514Z,4.53
2023-02-28T16:06:17.803Z,3.17
2023-02-28T16:08:44.282Z,3.63
2023-02-28T16:11:11.165Z,4.43
2023-02-28T16:13:38.103Z,5.20
2023-02-28T16:16:04.726Z,3.95
2023-02-28T16:18:34.608Z,4.63
2023-02-28T16:21:01.157Z,3.53
2023-02-28T16:23:27.625Z,3.20
2023-02-28T16:25:54.246Z,5.28
2023-02-28T16:28:30.854Z,5.03
2023-02-28T16:30:57.405Z,6.18
2023-02-28T16:33:23.812Z,4.70
2023-02-28T16:35:50.551Z,3.30
2023-02-28T16:38:16.956Z,4.68
2023-02-28T16:40:43.481Z,4.35
2023-02-28T16:43:15.974Z,4.85
2023-02-28T16:48:13.158Z,5.05
2023-02-28T16:50:39.853Z,5.43
2023-02-28T16:53:06.310Z,5.68
2023-02-28T16:55:32.683Z,4.35
2023-02-28T16:58:00.568Z,6.57
2023-02-28T17:00:28.720Z,5.82
2023-02-28T17:02:56.418Z,5.05
2023-02-28T17:05:23.445Z,5.35
2023-02-28T17:07:50.279Z,4.10
2023-02-28T17:10:25.400Z,6.00
2023-02-28T17:12:52.229Z,4.88
2023-02-28T17:15:20.661Z,7.13
2023-02-28T17:17:48.562Z,5.85
2023-02-28T17:20:25.604Z,7.70
2023-02-28T17:22:52.118Z,6.38
2023-02-28T17:25:18.544Z,6.35
2023-02-28T17:27:45.147Z,4.43
2023-02-28T17:30:16.687Z,6.82
2023-02-28T17:32:43.317Z,7.93
2023-02-28T17:35:10.032Z,9.73
2023-02-28T17:37:36.466Z,7.25
2023-02-28T17:40:03.656Z,7.50
2023-02-28T17:42:30.122Z,10.15
2023-02-28T17:44:56.516Z,6.85
2023-02-28T17:47:22.967Z,7.40
2023-02-28T17:49:49.348Z,8.25
2023-02-28T17:52:15.740Z,5.82
2023-02-28T17:54:42.935Z,7.35
2023-02-28T17:57:13.816Z,5.88
2023-02-28T17:59:41.677Z,8.38
2023-02-28T18:02:08.133Z,5.80
2023-02-28T18:04:34.522Z,9.20
2023-02-28T18:07:01.029Z,7.00
2023-02-28T18:09:27.980Z,8.38
2023-02-28T18:11:56.578Z,8.43
2023-02-28T18:14:25.857Z,6.70
2023-02-28T18:16:53.644Z,7.60
2023-02-28T18:19:21.034Z,9.65
2023-02-28T18:21:50.374Z,7.55
2023-02-28T18:24:18.355Z,8.15
2023-02-28T18:26:44.832Z,9.18
2023-02-28T18:29:19.947Z,9.70
2023-02-28T18:31:46.550Z,9.80
2023-02-28T18:34:13.000Z,7.53
2023-02-28T18:36:40.040Z,8.30
2023-02-28T18:39:06.450Z,10.70
2023-02-28T18:41:32.875Z,9.35
2023-02-28T18:44:07.705Z,10.63
2023-02-28T18:46:40.438Z,8.48
2023-02-28T18:49:06.870Z,6.63
2023-02-28T18:51:33.301Z,7.95
2023-02-28T18:54:00.140Z,8.52
2023-02-28T18:56:26.650Z,11.93
2023-02-28T18:58:53.306Z,11.00
2023-02-28T19:01:26.876Z,10.98
2023-02-28T19:03:53.344Z,9.27
2023-02-28T19:06:19.852Z,8.63
2023-02-28T19:08:46.341Z,7.40
2023-02-28T19:11:17.662Z,8.95
2023-02-28T19:13:44.717Z,7.25
2023-02-28T19:16:12.983Z,6.00
2023-02-28T19:18:39.515Z,12.55
2023-02-28T19:21:10.357Z,11.90
2023-02-28T19:23:37.852Z,10.68
2023-02-28T19:26:08.617Z,12.35
2023-02-28T19:28:34.982Z,9.55
2023-02-28T19:31:01.578Z,8.73
2023-02-28T19:33:27.989Z,8.18
2023-02-28T19:35:54.583Z,9.63
2023-02-28T19:38:21.053Z,8.52
2023-02-28T19:40:47.444Z,7.75
2023-02-28T19:43:13.872Z,8.15
2023-02-28T19:45:40.330Z,15.57
2023-02-28T19:48:09.829Z,17.30
2023-02-28T19:50:37.490Z,11.23
2023-02-28T19:53:04.153Z,10.85
2023-02-28T19:55:30.589Z,7.93
2023-02-28T19:57:56.989Z,7.63
2023-02-28T20:00:23.613Z,9.27
2023-02-28T20:02:50.104Z,8.90
2023-02-28T20:05:16.539Z,8.80
2023-02-28T20:07:43.022Z,7.95
2023-02-28T20:10:10.236Z,9.45
2023-02-28T20:12:36.682Z,7.53
2023-02-28T20:15:03.336Z,7.97
2023-02-28T20:17:30.567Z,6.85
2023-02-28T20:19:56.937Z,9.20
2023-02-28T20:22:23.290Z,9.68
2023-02-28T20:24:49.786Z,12.68
2023-02-28T20:27:17.250Z,15.05
2023-02-28T20:29:43.666Z,16.80
2023-02-28T20:32:10.141Z,13.23
2023-02-28T20:34:36.624Z,15.55
2023-02-28T20:37:03.073Z,20.60
2023-02-28T20:39:29.525Z,29.85
2023-02-28T20:41:55.894Z,23.25
2023-02-28T20:44:22.328Z,21.73
2023-02-28T20:46:48.800Z,16.75
2023-02-28T20:49:15.882Z,15.48
2023-02-28T20:51:42.369Z,15.65
2023-02-28T20:54:09.532Z,11.90
2023-02-28T20:56:35.998Z,11.07
2023-02-28T20:59:02.357Z,10.27
2023-02-28T21:01:29.443Z,14.52
2023-02-28T21:03:58.865Z,12.85
2023-02-28T21:06:30.578Z,9.77
2023-02-28T21:08:58.156Z,8.90
2023-02-28T21:11:26.050Z,12.13
2023-02-28T21:13:53.210Z,12.70
2023-02-28T21:16:21.721Z,11.70
2023-02-28T21:18:48.727Z,9.38
2023-02-28T21:21:18.430Z,10.65
2023-02-28T21:23:46.556Z,12.07
2023-02-28T21:26:18.711Z,9.65
2023-02-28T21:28:51.920Z,11.35
2023-02-28T21:31:19.163Z,18.80
2023-02-28T21:33:46.362Z,48.45
2023-02-28T21:36:21.162Z,45.72
2023-02-28T21:38:48.990Z,37.35
2023-02-28T21:41:17.797Z,25.42
2023-02-28T21:43:44.864Z,20.92
2023-02-28T21:46:13.622Z,12.43
2023-02-28T21:48:40.309Z,14.35
2023-02-28T21:51:10.504Z,12.05
2023-02-28T21:53:38.070Z,10.07
2023-02-28T21:56:06.926Z,8.88
2023-02-28T21:58:33.490Z,9.77
2023-02-28T22:01:17.602Z,10.68
2023-02-28T22:03:44.725Z,10.23
2023-02-28T22:06:22.726Z,9.40
2023-02-28T22:08:53.035Z,9.82
2023-02-28T22:11:20.260Z,12.73
2023-02-28T22:13:48.666Z,11.23
2023-02-28T22:16:17.575Z,13.45
2023-02-28T22:18:44.458Z,12.70
2023-02-28T22:21:11.731Z,12.48
2023-02-28T22:23:38.918Z,11.73
2023-02-28T22:26:08.317Z,12.32
2023-02-28T22:28:35.609Z,12.27
2023-02-28T22:31:12.568Z,10.32
2023-02-28T22:33:39.054Z,11.13
2023-02-28T22:36:06.278Z,11.50
2023-02-28T22:38:35.367Z,11.73
2023-02-28T22:41:03.139Z,12.13
2023-02-28T22:43:29.573Z,13.38
2023-02-28T22:45:55.956Z,15.00
2023-02-28T22:48:22.435Z,14.07
2023-02-28T22:50:48.834Z,14.98
2023-02-28T22:53:15.339Z,15.85
2023-02-28T22:55:41.766Z,16.85
2023-02-28T22:58:08.179Z,15.52
2023-02-28T23:00:34.548Z,17.33
2023-02-28T23:03:01.019Z,15.38
2023-02-28T23:05:30.208Z,15.55
2023-02-28T23:07:56.612Z,16.67
2023-02-28T23:10:23.011Z,15.82
2023-02-28T23:12:53.189Z,16.33
2023-02-28T23:15:21.092Z,19.77
2023-02-28T23:17:48.332Z,21.42
2023-02-28T23:20:17.522Z,22.33
2023-02-28T23:22:50.521Z,22.70
2023-02-28T23:25:18.539Z,20.25
2023-02-28T23:27:45.381Z,18.30
2023-02-28T23:30:12.766Z,20.33
2023-02-28T23:32:40.142Z,23.63
2023-02-28T23:35:07.918Z,22.38
2023-02-28T23:37:35.454Z,20.88
2023-02-28T23:40:01.940Z,20.42
2023-02-28T23:42:28.344Z,20.92
2023-02-28T23:44:54.745Z,22.30
2023-02-28T23:47:22.324Z,16.52
2023-02-28T23:49:48.736Z,14.88
2023-02-28T23:52:15.193Z,15.15
2023-02-28T23:54:41.829Z,14.90
2023-02-28T23:57:08.287Z,18.60
2023-02-28T23:59:35.307Z,13.90
